createdAt,value
2022-12-22T00:02:05.099Z,95240.00
2022-12-22T00:06:29.409Z,95223.00
2022-12-22T00:10:50.161Z,95220.00
2022-12-22T00:15:10.650Z,95228.00
2022-12-22T00:19:32.067Z,95228.00
2022-12-22T00:23:53.777Z,95231.00
2022-12-22T00:28:14.246Z,95214.00
2022-12-22T00:32:34.792Z,95216.00
2022-12-22T00:36:55.621Z,95219.00
2022-12-22T00:41:17.180Z,95204.00
2022-12-22T00:45:38.311Z,95214.00
2022-12-22T00:50:01.611Z,95213.00
2022-12-22T00:54:22.483Z,95206.00
2022-12-22T00:58:44.125Z,95198.00
2022-12-22T01:03:04.990Z,95204.00
2022-12-22T01:07:25.704Z,95207.00
2022-12-22T01:11:46.087Z,95201.00
2022-12-22T01:16:07.571Z,95188.00
2022-12-22T01:20:28.900Z,95186.00
2022-12-22T01:24:49.797Z,95183.00
2022-12-22T01:29:10.210Z,95195.00
2022-12-22T01:33:32.534Z,95190.00
2022-12-22T01:37:52.656Z,95181.00
2022-12-22T01:42:12.955Z,95184.00
2022-12-22T01:46:42.267Z,95175.00
2022-12-22T01:51:04.268Z,95189.00
2022-12-22T01:55:29.949Z,95179.00
2022-12-22T01:59:50.423Z,95175.00
2022-12-22T02:04:10.612Z,95173.00
2022-12-22T02:08:39.710Z,95168.00
2022-12-22T02:13:08.041Z,95177.00
2022-12-22T02:17:36.110Z,95167.00
2022-12-22T02:22:13.696Z,95172.00
2022-12-22T02:26:48.846Z,95152.00
2022-12-22T02:31:10.170Z,95164.00
2022-12-22T02:35:32.371Z,95158.00
2022-12-22T02:40:07.304Z,95150.00
2022-12-22T02:44:39.594Z,95150.00
2022-12-22T02:49:05.498Z,95149.00
2022-12-22T02:53:26.887Z,95160.00
2022-12-22T02:57:47.688Z,95152.00
2022-12-22T03:02:09.224Z,95156.00
2022-12-22T03:06:29.759Z,95165.00
2022-12-22T03:10:50.043Z,95160.00
2022-12-22T03:15:10.421Z,95151.00
2022-12-22T03:19:32.137Z,95161.00
2022-12-22T03:23:52.272Z,95157.00
2022-12-22T03:27:55.019Z,95149.00
2022-12-22T03:31:57.846Z,95148.00
2022-12-22T03:36:02.427Z,95154.00
2022-12-22T03:40:06.073Z,95152.00
2022-12-22T03:44:26.112Z,95146.00
2022-12-22T03:48:28.902Z,95138.00
2022-12-22T03:52:33.062Z,95134.00
2022-12-22T03:56:36.120Z,95135.00
2022-12-22T04:00:38.980Z,95124.00
2022-12-22T04:04:41.756Z,95118.00
2022-12-22T04:08:45.960Z,95117.00
2022-12-22T04:12:56.721Z,95115.00
2022-12-22T04:16:59.615Z,95108.00
2022-12-22T04:21:02.429Z,95114.00
2022-12-22T04:25:07.871Z,95115.00
2022-12-22T04:29:10.653Z,95122.00
2022-12-22T04:33:13.421Z,95116.00
2022-12-22T04:37:17.755Z,95120.00
2022-12-22T04:41:22.162Z,95113.00
2022-12-22T04:45:25.259Z,95109.00
2022-12-22T04:49:28.081Z,95103.00
2022-12-22T04:53:31.940Z,95099.00
2022-12-22T04:57:40.559Z,95096.00
2022-12-22T05:01:44.064Z,95088.00
2022-12-22T05:05:47.010Z,95100.00
2022-12-22T05:09:49.819Z,95088.00
2022-12-22T05:13:54.045Z,95080.00
2022-12-22T05:17:57.371Z,95072.00
2022-12-22T05:22:00.175Z,95074.00
2022-12-22T05:26:02.975Z,95076.00
2022-12-22T05:30:08.728Z,95077.00
2022-12-22T05:34:11.515Z,95070.00
2022-12-22T05:38:14.265Z,95061.00
2022-12-22T05:42:35.606Z,95054.00
2022-12-22T05:46:39.944Z,95054.00
2022-12-22T05:50:42.920Z,95060.00
2022-12-22T05:54:46.194Z,95051.00
2022-12-22T05:58:50.380Z,95062.00
2022-12-22T06:02:54.472Z,95067.00
2022-12-22T06:06:57.229Z,95076.00
2022-12-22T06:11:00.433Z,95073.00
2022-12-22T06:15:03.149Z,95063.00
2022-12-22T06:19:07.440Z,95063.00
2022-12-22T06:23:10.191Z,95063.00
2022-12-22T06:27:12.904Z,95072.00
2022-12-22T06:31:15.733Z,95071.00
2022-12-22T06:35:19.955Z,95071.00
2022-12-22T06:39:23.045Z,95074.00
2022-12-22T06:43:25.884Z,95088.00
2022-12-22T06:47:28.647Z,95099.00
2022-12-22T06:51:32.820Z,95109.00
2022-12-22T06:55:36.397Z,95114.00
2022-12-22T06:59:39.231Z,95117.00
2022-12-22T07:03:42.103Z,95101.00
2022-12-22T07:07:46.475Z,95091.00
2022-12-22T07:11:49.297Z,95093.00
2022-12-22T07:16:00.132Z,95091.00
2022-12-22T07:20:04.390Z,95080.00
2022-12-22T07:24:09.373Z,95073.00
2022-12-22T07:28:16.733Z,95083.00
2022-12-22T07:32:23.217Z,95071.00
2022-12-22T07:36:26.021Z,95067.00
2022-12-22T07:40:30.221Z,95059.00
2022-12-22T07:44:33.049Z,95048.00
2022-12-22T07:48:55.756Z,95052.00
2022-12-22T07:53:00.969Z,95066.00
2022-12-22T07:57:05.079Z,95073.00
2022-12-22T08:01:09.219Z,95066.00
2022-12-22T08:05:12.437Z,95075.00
2022-12-22T08:09:16.977Z,95083.00
2022-12-22T08:13:21.330Z,95083.00
2022-12-22T08:17:24.212Z,95082.00
2022-12-22T08:21:27.037Z,95077.00
2022-12-22T08:25:30.953Z,95079.00
2022-12-22T08:29:37.738Z,95101.00
2022-12-22T08:33:40.558Z,95089.00
2022-12-22T08:37:46.899Z,95103.00
2022-12-22T08:41:52.360Z,95090.00
2022-12-22T08:45:56.571Z,95099.00
2022-12-22T08:49:59.408Z,95088.00
2022-12-22T08:54:05.594Z,95089.00
2022-12-22T08:58:09.119Z,95085.00
2022-12-22T09:02:13.337Z,95093.00
2022-12-22T09:06:16.218Z,95083.00
2022-12-22T09:10:19.156Z,95094.00
2022-12-22T09:14:21.971Z,95092.00
2022-12-22T09:18:26.100Z,95084.00
2022-12-22T09:22:29.058Z,95079.00
2022-12-22T09:26:31.970Z,95083.00
2022-12-22T09:30:34.786Z,95095.00
2022-12-22T09:34:38.923Z,95102.00
2022-12-22T09:38:42.874Z,95105.00
2022-12-22T09:42:45.679Z,95089.00
2022-12-22T09:46:48.789Z,95085.00
2022-12-22T09:50:52.954Z,95079.00
2022-12-22T09:54:56.937Z,95070.00
2022-12-22T09:59:01.612Z,95050.00
2022-12-22T10:03:11.767Z,95037.00
2022-12-22T10:07:24.527Z,95037.00
2022-12-22T10:11:27.437Z,95055.00
2022-12-22T10:15:37.192Z,95060.00
2022-12-22T10:19:39.954Z,95058.00
2022-12-22T10:23:46.586Z,95054.00
2022-12-22T10:27:51.665Z,95040.00
2022-12-22T10:32:00.815Z,95042.00
2022-12-22T10:36:03.783Z,95036.00
2022-12-22T10:40:20.043Z,95017.00
2022-12-22T10:44:25.972Z,95032.00
2022-12-22T10:48:30.890Z,95047.00
2022-12-22T10:52:33.899Z,95044.00
2022-12-22T10:56:38.078Z,95052.00
2022-12-22T11:00:41.608Z,95054.00
2022-12-22T11:04:44.367Z,95061.00
2022-12-22T11:08:51.533Z,95052.00
2022-12-22T11:13:13.367Z,95046.00
2022-12-22T11:17:21.977Z,95054.00
2022-12-22T11:21:36.327Z,95059.00
2022-12-22T11:25:49.541Z,95042.00
2022-12-22T11:30:04.609Z,95053.00
2022-12-22T11:34:23.183Z,95064.00
2022-12-22T11:38:45.672Z,95037.00
2022-12-22T11:43:00.656Z,95025.00
2022-12-22T11:47:15.201Z,95017.00
2022-12-22T11:51:28.725Z,95001.00
2022-12-22T11:55:37.048Z,94996.00
2022-12-22T11:59:50.050Z,94989.00
2022-12-22T12:04:17.796Z,94988.00
2022-12-22T12:08:32.173Z,94991.00
2022-12-22T12:12:46.928Z,95003.00
2022-12-22T12:16:55.581Z,94996.00
2022-12-22T12:21:07.509Z,94990.00
2022-12-22T12:25:25.847Z,95010.00
2022-12-22T12:29:30.295Z,94995.00
2022-12-22T12:33:39.636Z,95010.00
2022-12-22T12:37:47.120Z,94987.00
2022-12-22T12:41:58.843Z,95003.00
2022-12-22T12:46:01.716Z,95005.00
2022-12-22T12:55:29.737Z,95001.00
2022-12-22T12:59:47.590Z,95021.00
2022-12-22T13:04:03.000Z,95000.00
2022-12-22T13:08:14.396Z,95004.00
2022-12-22T13:12:40.739Z,95009.00
2022-12-22T13:16:43.602Z,95009.00
2022-12-22T13:20:54.211Z,94991.00
2022-12-22T13:24:57.765Z,95019.00
2022-12-22T13:29:08.809Z,95019.00
2022-12-22T13:33:16.003Z,95011.00
2022-12-22T13:37:21.619Z,95008.00
2022-12-22T13:41:27.627Z,95016.00
2022-12-22T13:45:35.595Z,95007.00
2022-12-22T13:50:07.803Z,95027.00
2022-12-22T13:54:12.663Z,95019.00
2022-12-22T13:58:26.146Z,95045.00
2022-12-22T14:02:33.951Z,95042.00
2022-12-22T14:06:38.960Z,95041.00
2022-12-22T14:10:46.060Z,95059.00
2022-12-22T14:14:51.897Z,95053.00
2022-12-22T14:18:56.088Z,95055.00
2022-12-22T14:23:02.824Z,95065.00
2022-12-22T14:27:05.791Z,95075.00
2022-12-22T14:31:09.019Z,95081.00
2022-12-22T14:35:29.396Z,95075.00
2022-12-22T14:39:33.246Z,95080.00
2022-12-22T14:43:36.321Z,95098.00
2022-12-22T14:47:39.221Z,95111.00
2022-12-22T14:51:43.485Z,95105.00
2022-12-22T14:55:51.327Z,95105.00
2022-12-22T15:00:02.846Z,95106.00
2022-12-22T15:04:08.365Z,95109.00
2022-12-22T15:08:40.140Z,95104.00
2022-12-22T15:12:43.886Z,95109.00
2022-12-22T15:16:47.062Z,95110.00
2022-12-22T15:20:49.834Z,95115.00
2022-12-22T15:24:53.927Z,95124.00
2022-12-22T15:28:56.664Z,95129.00
2022-12-22T15:32:59.443Z,95116.00
2022-12-22T15:37:02.256Z,95137.00
2022-12-22T15:41:07.267Z,95138.00
2022-12-22T15:45:10.648Z,95118.00
2022-12-22T15:49:17.333Z,95134.00
2022-12-22T15:53:21.442Z,95145.00
2022-12-22T15:57:25.584Z,95149.00
2022-12-22T16:01:28.558Z,95169.00
2022-12-22T16:05:31.581Z,95145.00
2022-12-22T16:09:40.865Z,95153.00
2022-12-22T16:13:45.790Z,95169.00
2022-12-22T16:17:51.642Z,95167.00
2022-12-22T16:21:55.107Z,95166.00
2022-12-22T16:26:01.998Z,95171.00
2022-12-22T16:30:08.366Z,95169.00
2022-12-22T16:34:11.880Z,95174.00
2022-12-22T16:38:18.638Z,95184.00
2022-12-22T16:46:44.213Z,95182.00
2022-12-22T16:50:48.560Z,95179.00
2022-12-22T16:54:52.968Z,95201.00
2022-12-22T16:58:55.991Z,95185.00
2022-12-22T17:03:05.810Z,95188.00
2022-12-22T17:07:10.514Z,95196.00
2022-12-22T17:11:20.951Z,95189.00
2022-12-22T17:15:24.866Z,95186.00
2022-12-22T17:19:29.116Z,95180.00
2022-12-22T17:23:35.748Z,95187.00
2022-12-22T17:27:38.593Z,95187.00
2022-12-22T17:31:41.416Z,95187.00
2022-12-22T17:35:48.439Z,95170.00
2022-12-22T17:39:53.584Z,95165.00
2022-12-22T17:43:56.492Z,95167.00
2022-12-22T17:47:59.454Z,95172.00
2022-12-22T17:52:03.721Z,95158.00
2022-12-22T17:56:08.884Z,95160.00
2022-12-22T18:00:18.472Z,95150.00
2022-12-22T18:04:22.018Z,95166.00
2022-12-22T18:08:26.257Z,95161.00
2022-12-22T18:12:29.820Z,95180.00
2022-12-22T18:16:32.720Z,95172.00
2022-12-22T18:20:35.561Z,95159.00
2022-12-22T18:24:39.754Z,95157.00
2022-12-22T18:28:43.306Z,95158.00
2022-12-22T18:32:46.148Z,95148.00
2022-12-22T18:36:49.419Z,95138.00
2022-12-22T18:40:53.651Z,95133.00
2022-12-22T18:44:56.433Z,95128.00
2022-12-22T18:49:05.323Z,95120.00
2022-12-22T18:53:19.482Z,95120.00
2022-12-22T18:57:23.539Z,95123.00
2022-12-22T19:01:28.016Z,95123.00
2022-12-22T19:05:32.813Z,95112.00
2022-12-22T19:09:35.738Z,95113.00
2022-12-22T19:13:43.792Z,95113.00
2022-12-22T19:17:46.783Z,95104.00
2022-12-22T19:21:50.537Z,95092.00
2022-12-22T19:25:55.613Z,95096.00
2022-12-22T19:30:04.641Z,95086.00
2022-12-22T19:34:16.075Z,95083.00
2022-12-22T19:38:21.211Z,95085.00
2022-12-22T19:42:30.993Z,95085.00
2022-12-22T19:46:36.658Z,95086.00
2022-12-22T19:50:39.528Z,95084.00
2022-12-22T19:54:42.382Z,95077.00
2022-12-22T19:58:45.946Z,95071.00
2022-12-22T20:02:52.125Z,95081.00
2022-12-22T20:06:55.034Z,95082.00
2022-12-22T20:10:59.063Z,95078.00
2022-12-22T20:15:02.816Z,95077.00
2022-12-22T20:19:11.301Z,95066.00
2022-12-22T20:23:17.292Z,95054.00
2022-12-22T20:27:23.711Z,95048.00
2022-12-22T20:31:27.956Z,95041.00
2022-12-22T20:35:32.282Z,95040.00
2022-12-22T20:39:34.998Z,95040.00
2022-12-22T20:43:39.170Z,95035.00
2022-12-22T20:47:42.435Z,95034.00
2022-12-22T20:51:46.618Z,95036.00
2022-12-22T20:55:49.519Z,95023.00
2022-12-22T20:59:56.460Z,95026.00
2022-12-22T21:03:59.715Z,95024.00
2022-12-22T21:08:04.030Z,95011.00
2022-12-22T21:12:07.181Z,95012.00
2022-12-22T21:16:13.531Z,95020.00
2022-12-22T21:20:18.223Z,95026.00
2022-12-22T21:24:22.422Z,95012.00
2022-12-22T21:28:32.280Z,95026.00
2022-12-22T21:32:35.062Z,95021.00
2022-12-22T21:36:38.047Z,94998.00
2022-12-22T21:40:42.235Z,95003.00
2022-12-22T21:44:45.643Z,94990.00
2022-12-22T21:48:48.355Z,94993.00
2022-12-22T21:52:51.984Z,94985.00
2022-12-22T21:56:56.449Z,94985.00
2022-12-22T22:00:59.243Z,94986.00
2022-12-22T22:05:02.026Z,94977.00
2022-12-22T22:09:06.977Z,94970.00
2022-12-22T22:13:14.239Z,94967.00
2022-12-22T22:17:16.996Z,94953.00
2022-12-22T22:21:19.895Z,94939.00
2022-12-22T22:25:23.439Z,94923.00
2022-12-22T22:29:27.557Z,94929.00
2022-12-22T22:33:30.290Z,94930.00
2022-12-22T22:37:33.050Z,94926.00
2022-12-22T22:41:42.649Z,94919.00
2022-12-22T22:45:47.539Z,94901.00
2022-12-22T22:49:50.715Z,94903.00
2022-12-22T22:53:54.128Z,94901.00
2022-12-22T22:57:57.113Z,94876.00
2022-12-22T23:02:01.384Z,94865.00
2022-12-22T23:06:05.279Z,94856.00
2022-12-22T23:10:09.127Z,94862.00
2022-12-22T23:14:11.925Z,94855.00
2022-12-22T23:18:16.047Z,94855.00
2022-12-22T23:22:18.859Z,94850.00
2022-12-22T23:26:21.674Z,94857.00
2022-12-22T23:30:24.415Z,94859.00
2022-12-22T23:34:28.718Z,94851.00
2022-12-22T23:38:31.495Z,94829.00
2022-12-22T23:42:34.206Z,94842.00
2022-12-22T23:46:37.016Z,94846.00
2022-12-22T23:50:41.304Z,94820.00
2022-12-22T23:54:44.111Z,94823.00
2022-12-22T23:58:50.962Z,94835.00
